This is the latest recevied weather packets stored in our database for station/object SV1TGC. If no packets are shown the sender has not sent any weather packets the latest 10 day(s).
| Time | Temp. | Humidity | Pressure | Rain* | Wind** | Luminosity | Snow |
|---|---|---|---|---|---|---|---|
| 1777616149 | 12.78° C | 72% | 1017.2 hPa | 0 mm | - | - | - |
| 1777613732 | 12.78° C | 72% | 1016.1 hPa | 0 mm | - | - | - |
| 1777610135 | 12.22° C | 78% | 1015.7 hPa | 0 mm | - | - | - |
| 1777608333 | 12.78° C | 76% | 1015.6 hPa | 0 mm | - | - | - |
| 1777608054 | 12.78° C | 77% | 1015.7 hPa | 0 mm | - | - | - |
| 1777606832 | 12.78° C | 77% | 1015.6 hPa | 0 mm | - | - | - |
| 1777605633 | 13.33° C | 76% | 1015.5 hPa | 0 mm | - | - | - |
| 1777600536 | 13.89° C | 77% | 1014.9 hPa | 0 mm | - | - | - |
| 1777598434 | 13.89° C | 74% | 1014.7 hPa | 0 mm | - | - | - |
| 1777596932 | 13.89° C | 78% | 1014.4 hPa | 0 mm | - | - | - |
| 1777596632 | 13.89° C | 78% | 1014.4 hPa | 0 mm | - | - | - |
| 1777596342 | 13.89° C | 80% | 1014.3 hPa | 0 mm | - | - | - |
| 1777593932 | 15° C | 75% | 1014.6 hPa | 0 mm | - | - | - |
| 1777593332 | 15° C | 74% | 1014.4 hPa | 0 mm | - | - | - |
| 1777593033 | 15° C | 74% | 1014.4 hPa | 0 mm | - | - | - |
| 1777592434 | 15° C | 75% | 1014.3 hPa | 0 mm | - | - | - |
| 1777591533 | 15° C | 74% | 1014.5 hPa | 0 mm | - | - | - |
| 1777591232 | 15° C | 74% | 1014.4 hPa | 0 mm | - | - | - |
| 1777590333 | 15° C | 74% | 1014.7 hPa | 0 mm | - | - | - |
| 1777587633 | 15.56° C | 71% | 1014.7 hPa | 0 mm | - | - | - |
| 1777584655 | 16.11° C | 78% | 1014.3 hPa | 0 mm | - | - | - |
| 1777582533 | 16.11° C | 78% | 1014.5 hPa | 0 mm | - | - | - |
| 1777582248 | 16.11° C | 78% | 1014.6 hPa | 0 mm | - | - | - |
| 1777578635 | 17.78° C | 74% | 1014.8 hPa | 0 mm | - | - | - |
| 1777578348 | 17.78° C | 72% | 1014.8 hPa | 0 mm | - | - | - |
* Rain latest hour (hover to see other rain measurements)
** Current wind speed in m/s (hover to see current wind gust speed)